sensor_id;sensor_type;location;lat;lon;timestamp;pressure;altitude;pressure_sealevel;temperature;humidity
47742;BME280;33504;52.066;6.096;2022-10-30T00:02:03;101593.24;;;19.18;42.77
47742;BME280;33504;52.066;6.096;2022-10-30T00:04:31;101593.03;;;19.14;42.79
47742;BME280;33504;52.066;6.096;2022-10-30T00:06:58;101591.50;;;19.27;42.97
47742;BME280;33504;52.066;6.096;2022-10-30T00:09:25;101594.80;;;19.13;43.07
47742;BME280;33504;52.066;6.096;2022-10-30T00:11:52;101600.37;;;19.04;43.30
47742;BME280;33504;52.066;6.096;2022-10-30T00:14:19;101600.29;;;18.96;43.43
47742;BME280;33504;52.066;6.096;2022-10-30T00:16:46;101591.96;;;19.01;43.71
47742;BME280;33504;52.066;6.096;2022-10-30T00:19:13;101603.23;;;18.61;43.98
47742;BME280;33504;52.066;6.096;2022-10-30T00:21:40;101598.82;;;18.78;44.07
47742;BME280;33504;52.066;6.096;2022-10-30T00:24:07;101596.88;;;18.62;44.29
47742;BME280;33504;52.066;6.096;2022-10-30T00:26:34;101596.46;;;18.58;44.25
47742;BME280;33504;52.066;6.096;2022-10-30T00:29:01;101599.55;;;18.57;44.29
47742;BME280;33504;52.066;6.096;2022-10-30T00:31:28;101596.05;;;18.49;44.38
47742;BME280;33504;52.066;6.096;2022-10-30T00:33:55;101597.73;;;18.47;44.50
47742;BME280;33504;52.066;6.096;2022-10-30T00:36:22;101591.73;;;18.38;44.48
47742;BME280;33504;52.066;6.096;2022-10-30T00:38:50;101588.13;;;18.44;44.74
47742;BME280;33504;52.066;6.096;2022-10-30T00:41:19;101590.62;;;18.16;44.92
47742;BME280;33504;52.066;6.096;2022-10-30T00:43:47;101588.41;;;18.09;44.92
47742;BME280;33504;52.066;6.096;2022-10-30T00:46:17;101588.04;;;18.45;44.95
47742;BME280;33504;52.066;6.096;2022-10-30T00:48:49;101591.70;;;17.95;45.09
47742;BME280;33504;52.066;6.096;2022-10-30T00:51:18;101590.80;;;17.91;45.17
47742;BME280;33504;52.066;6.096;2022-10-30T00:53:46;101593.57;;;18.07;45.16
47742;BME280;33504;52.066;6.096;2022-10-30T00:56:15;101594.37;;;17.80;45.23
47742;BME280;33504;52.066;6.096;2022-10-30T00:58:48;101597.10;;;17.76;45.25
47742;BME280;33504;52.066;6.096;2022-10-30T01:01:20;101596.38;;;17.96;45.44
47742;BME280;33504;52.066;6.096;2022-10-30T01:03:50;101595.54;;;17.72;45.52
47742;BME280;33504;52.066;6.096;2022-10-30T01:06:18;101597.54;;;18.11;45.35
47742;BME280;33504;52.066;6.096;2022-10-30T01:08:46;101600.90;;;17.87;45.48
47742;BME280;33504;52.066;6.096;2022-10-30T01:11:13;101602.20;;;17.63;45.41
47742;BME280;33504;52.066;6.096;2022-10-30T01:13:41;101601.80;;;17.85;45.43
47742;BME280;33504;52.066;6.096;2022-10-30T01:16:22;101604.22;;;17.80;45.56
47742;BME280;33504;52.066;6.096;2022-10-30T01:18:59;101597.73;;;17.73;45.68
47742;BME280;33504;52.066;6.096;2022-10-30T01:21:35;101603.61;;;17.92;45.73
47742;BME280;33504;52.066;6.096;2022-10-30T01:24:21;101604.32;;;17.89;45.89
47742;BME280;33504;52.066;6.096;2022-10-30T01:26:59;101606.26;;;17.53;46.16
47742;BME280;33504;52.066;6.096;2022-10-30T01:29:38;101608.67;;;17.74;46.27
47742;BME280;33504;52.066;6.096;2022-10-30T01:32:21;101611.71;;;17.80;46.15
47742;BME280;33504;52.066;6.096;2022-10-30T01:35:01;101607.63;;;17.55;46.14
47742;BME280;33504;52.066;6.096;2022-10-30T01:37:33;101610.71;;;17.77;46.18
47742;BME280;33504;52.066;6.096;2022-10-30T01:40:05;101607.79;;;17.80;46.05
47742;BME280;33504;52.066;6.096;2022-10-30T01:42:45;101604.69;;;17.59;45.94
47742;BME280;33504;52.066;6.096;2022-10-30T01:45:16;101607.44;;;17.79;45.98
47742;BME280;33504;52.066;6.096;2022-10-30T01:47:52;101613.85;;;17.74;45.91
47742;BME280;33504;52.066;6.096;2022-10-30T01:50:31;101615.22;;;17.68;46.00
47742;BME280;33504;52.066;6.096;2022-10-30T01:53:10;101614.34;;;17.39;46.07
47742;BME280;33504;52.066;6.096;2022-10-30T01:55:46;101618.16;;;17.54;46.10
47742;BME280;33504;52.066;6.096;2022-10-30T01:58:19;101622.19;;;17.75;46.17
47742;BME280;33504;52.066;6.096;2022-10-30T02:00:51;101621.74;;;17.43;46.26
47742;BME280;33504;52.066;6.096;2022-10-30T02:03:19;101621.76;;;17.34;46.24
47742;BME280;33504;52.066;6.096;2022-10-30T02:05:48;101625.15;;;17.31;46.35
47742;BME280;33504;52.066;6.096;2022-10-30T02:08:15;101620.86;;;17.50;46.39
47742;BME280;33504;52.066;6.096;2022-10-30T02:10:44;101614.69;;;17.20;46.43
47742;BME280;33504;52.066;6.096;2022-10-30T02:13:12;101612.51;;;17.16;46.48
47742;BME280;33504;52.066;6.096;2022-10-30T02:15:40;101611.24;;;17.56;46.55
47742;BME280;33504;52.066;6.096;2022-10-30T02:18:07;101611.08;;;17.27;46.67
47742;BME280;33504;52.066;6.096;2022-10-30T02:20:34;101614.12;;;17.00;46.67
47742;BME280;33504;52.066;6.096;2022-10-30T02:23:01;101618.23;;;16.96;46.64
47742;BME280;33504;52.066;6.096;2022-10-30T02:25:28;101620.42;;;16.94;46.56
47742;BME280;33504;52.066;6.096;2022-10-30T02:27:55;101618.11;;;16.92;46.68
47742;BME280;33504;52.066;6.096;2022-10-30T02:30:22;101616.32;;;16.90;46.65
47742;BME280;33504;52.066;6.096;2022-10-30T02:32:49;101612.43;;;16.88;46.72
47742;BME280;33504;52.066;6.096;2022-10-30T02:35:16;101612.51;;;16.89;46.67
47742;BME280;33504;52.066;6.096;2022-10-30T02:37:43;101610.71;;;16.89;46.66
47742;BME280;33504;52.066;6.096;2022-10-30T02:40:13;101612.16;;;16.86;46.63
47742;BME280;33504;52.066;6.096;2022-10-30T02:42:40;101618.81;;;16.83;46.63
47742;BME280;33504;52.066;6.096;2022-10-30T02:45:08;101619.73;;;16.72;46.84
47742;BME280;33504;52.066;6.096;2022-10-30T02:47:35;101619.13;;;16.67;46.83
47742;BME280;33504;52.066;6.096;2022-10-30T02:50:03;101617.40;;;16.60;46.77
47742;BME280;33504;52.066;6.096;2022-10-30T02:52:31;101615.50;;;16.79;46.80
47742;BME280;33504;52.066;6.096;2022-10-30T02:54:58;101610.23;;;16.98;46.91
47742;BME280;33504;52.066;6.096;2022-10-30T02:57:25;101612.92;;;16.72;46.98
47742;BME280;33504;52.066;6.096;2022-10-30T02:59:52;101613.47;;;16.86;47.08
47742;BME280;33504;52.066;6.096;2022-10-30T03:02:19;101616.28;;;16.82;47.11
47742;BME280;33504;52.066;6.096;2022-10-30T03:04:46;101628.26;;;16.53;47.17
47742;BME280;33504;52.066;6.096;2022-10-30T03:07:13;101635.17;;;16.49;47.25
47742;BME280;33504;52.066;6.096;2022-10-30T03:09:40;101635.73;;;16.68;47.23
47742;BME280;33504;52.066;6.096;2022-10-30T03:12:07;101637.67;;;16.44;47.26
47742;BME280;33504;52.066;6.096;2022-10-30T03:14:35;101639.30;;;16.62;47.19
47742;BME280;33504;52.066;6.096;2022-10-30T03:17:02;101637.39;;;16.53;47.29
47742;BME280;33504;52.066;6.096;2022-10-30T03:19:29;101636.79;;;16.26;47.35
47742;BME280;33504;52.066;6.096;2022-10-30T03:21:56;101638.79;;;16.43;47.55
47742;BME280;33504;52.066;6.096;2022-10-30T03:24:24;101641.55;;;16.19;47.69
47742;BME280;33504;52.066;6.096;2022-10-30T03:26:51;101637.81;;;16.39;47.66
47742;BME280;33504;52.066;6.096;2022-10-30T03:29:18;101640.97;;;16.34;47.60
47742;BME280;33504;52.066;6.096;2022-10-30T03:31:45;101636.26;;;16.32;47.61
47742;BME280;33504;52.066;6.096;2022-10-30T03:34:12;101637.66;;;16.32;47.59
47742;BME280;33504;52.066;6.096;2022-10-30T03:36:39;101637.01;;;16.29;47.58
47742;BME280;33504;52.066;6.096;2022-10-30T03:39:07;101642.54;;;16.27;47.55
47742;BME280;33504;52.066;6.096;2022-10-30T03:41:34;101643.99;;;16.22;47.53
47742;BME280;33504;52.066;6.096;2022-10-30T03:44:02;101644.49;;;16.18;47.57
47742;BME280;33504;52.066;6.096;2022-10-30T03:46:29;101641.32;;;16.13;47.49
47742;BME280;33504;52.066;6.096;2022-10-30T03:48:56;101640.93;;;16.09;47.50
47742;BME280;33504;52.066;6.096;2022-10-30T03:51:24;101638.02;;;16.02;47.50
47742;BME280;33504;52.066;6.096;2022-10-30T03:53:51;101637.72;;;16.26;47.54
47742;BME280;33504;52.066;6.096;2022-10-30T03:56:19;101638.70;;;15.96;47.56
47742;BME280;33504;52.066;6.096;2022-10-30T03:58:45;101636.65;;;15.93;47.64
47742;BME280;33504;52.066;6.096;2022-10-30T04:01:12;101637.27;;;15.88;47.65
47742;BME280;33504;52.066;6.096;2022-10-30T04:03:39;101632.37;;;15.80;47.75
47742;BME280;33504;52.066;6.096;2022-10-30T04:06:07;101630.26;;;15.76;47.83
47742;BME280;33504;52.066;6.096;2022-10-30T04:08:33;101634.45;;;15.77;47.83
47742;BME280;33504;52.066;6.096;2022-10-30T04:11:00;101634.42;;;15.75;47.80
47742;BME280;33504;52.066;6.096;2022-10-30T04:13:27;101629.65;;;15.72;47.82
47742;BME280;33504;52.066;6.096;2022-10-30T04:15:54;101631.71;;;15.69;47.91
47742;BME280;33504;52.066;6.096;2022-10-30T04:18:22;101629.91;;;15.70;47.96
47742;BME280;33504;52.066;6.096;2022-10-30T04:20:49;101631.69;;;15.68;48.05
47742;BME280;33504;52.066;6.096;2022-10-30T04:23:18;101632.87;;;15.68;48.15
47742;BME280;33504;52.066;6.096;2022-10-30T04:25:45;101633.13;;;15.68;48.20
47742;BME280;33504;52.066;6.096;2022-10-30T04:28:13;101637.94;;;15.67;48.17
47742;BME280;33504;52.066;6.096;2022-10-30T04:30:40;101642.69;;;15.69;48.27
47742;BME280;33504;52.066;6.096;2022-10-30T04:33:10;101646.04;;;15.69;48.17
47742;BME280;33504;52.066;6.096;2022-10-30T04:35:38;101641.52;;;15.94;48.15
47742;BME280;33504;52.066;6.096;2022-10-30T04:38:07;101642.13;;;15.92;48.28
47742;BME280;33504;52.066;6.096;2022-10-30T04:40:37;101646.23;;;15.61;48.32
47742;BME280;33504;52.066;6.096;2022-10-30T04:43:05;101647.71;;;15.61;48.30
47742;BME280;33504;52.066;6.096;2022-10-30T04:45:32;101654.96;;;15.64;48.14
47742;BME280;33504;52.066;6.096;2022-10-30T04:48:00;101657.92;;;15.88;48.01
47742;BME280;33504;52.066;6.096;2022-10-30T04:50:27;101657.73;;;15.57;47.97
47742;BME280;33504;52.066;6.096;2022-10-30T04:52:59;101651.38;;;15.73;47.98
47742;BME280;33504;52.066;6.096;2022-10-30T04:55:27;101647.79;;;15.54;48.20
47742;BME280;33504;52.066;6.096;2022-10-30T04:57:55;101650.14;;;15.22;48.37
47742;BME280;33504;52.066;6.096;2022-10-30T05:00:23;101651.76;;;15.51;48.48
47742;BME280;33504;52.066;6.096;2022-10-30T05:02:50;101645.86;;;15.51;48.41
47742;BME280;33504;52.066;6.096;2022-10-30T05:05:17;101637.70;;;15.50;48.38
47742;BME280;33504;52.066;6.096;2022-10-30T05:07:44;101630.48;;;15.64;48.47
47742;BME280;33504;52.066;6.096;2022-10-30T05:10:11;101630.23;;;15.60;48.55
47742;BME280;33504;52.066;6.096;2022-10-30T05:12:40;101633.22;;;15.60;48.63
47742;BME280;33504;52.066;6.096;2022-10-30T05:15:08;101636.14;;;15.64;48.05
47742;BME280;33504;52.066;6.096;2022-10-30T05:17:35;101637.12;;;15.14;47.91
47742;BME280;33504;52.066;6.096;2022-10-30T05:20:02;101633.38;;;15.40;47.56
47742;BME280;33504;52.066;6.096;2022-10-30T05:22:30;101633.67;;;15.61;47.50
47742;BME280;33504;52.066;6.096;2022-10-30T05:24:58;101631.39;;;15.14;47.38
47742;BME280;33504;52.066;6.096;2022-10-30T05:27:25;101629.28;;;15.61;47.38
47742;BME280;33504;52.066;6.096;2022-10-30T05:29:52;101627.43;;;15.56;47.50
47742;BME280;33504;52.066;6.096;2022-10-30T05:32:19;101622.36;;;15.51;47.66
47742;BME280;33504;52.066;6.096;2022-10-30T05:34:46;101619.00;;;15.49;47.92
47742;BME280;33504;52.066;6.096;2022-10-30T05:37:13;101620.18;;;15.26;47.95
47742;BME280;33504;52.066;6.096;2022-10-30T05:39:40;101619.33;;;15.20;48.11
47742;BME280;33504;52.066;6.096;2022-10-30T05:42:06;101620.16;;;15.42;48.18
47742;BME280;33504;52.066;6.096;2022-10-30T05:44:33;101618.23;;;15.18;48.37
47742;BME280;33504;52.066;6.096;2022-10-30T05:47:00;101623.88;;;15.41;48.68
47742;BME280;33504;52.066;6.096;2022-10-30T05:49:28;101627.69;;;15.42;48.60
47742;BME280;33504;52.066;6.096;2022-10-30T05:51:55;101631.18;;;15.20;48.54
47742;BME280;33504;52.066;6.096;2022-10-30T05:54:22;101629.16;;;15.44;48.42
47742;BME280;33504;52.066;6.096;2022-10-30T05:56:49;101627.64;;;15.42;48.43
47742;BME280;33504;52.066;6.096;2022-10-30T05:59:16;101625.77;;;15.41;48.37
47742;BME280;33504;52.066;6.096;2022-10-30T06:01:43;101627.03;;;15.17;48.38
47742;BME280;33504;52.066;6.096;2022-10-30T06:04:10;101632.85;;;14.89;48.28
47742;BME280;33504;52.066;6.096;2022-10-30T06:06:37;101635.99;;;15.32;48.11
47742;BME280;33504;52.066;6.096;2022-10-30T06:09:04;101637.14;;;15.28;48.18
47742;BME280;33504;52.066;6.096;2022-10-30T06:11:31;101638.68;;;15.25;48.20
47742;BME280;33504;52.066;6.096;2022-10-30T06:13:58;101641.21;;;14.99;48.07
47742;BME280;33504;52.066;6.096;2022-10-30T06:16:25;101644.71;;;15.15;48.13
47742;BME280;33504;52.066;6.096;2022-10-30T06:18:52;101650.47;;;15.11;48.26
47742;BME280;33504;52.066;6.096;2022-10-30T06:21:19;101652.20;;;15.06;48.27
47742;BME280;33504;52.066;6.096;2022-10-30T06:23:47;101653.48;;;15.04;48.33
47742;BME280;33504;52.066;6.096;2022-10-30T06:26:14;101658.62;;;15.03;48.30
47742;BME280;33504;52.066;6.096;2022-10-30T06:28:41;101656.48;;;14.99;48.25
47742;BME280;33504;52.066;6.096;2022-10-30T06:31:09;101651.78;;;15.19;48.20
47742;BME280;33504;52.066;6.096;2022-10-30T06:33:35;101649.34;;;14.95;48.01
47742;BME280;33504;52.066;6.096;2022-10-30T06:36:03;101650.29;;;14.94;47.75
47742;BME280;33504;52.066;6.096;2022-10-30T06:38:30;101652.80;;;15.16;47.67
47742;BME280;33504;52.066;6.096;2022-10-30T06:40:57;101655.01;;;14.91;47.67
47742;BME280;33504;52.066;6.096;2022-10-30T06:43:24;101656.11;;;15.13;47.70
47742;BME280;33504;52.066;6.096;2022-10-30T06:45:51;101654.96;;;14.89;47.67
47742;BME280;33504;52.066;6.096;2022-10-30T06:48:18;101652.97;;;14.87;47.74
47742;BME280;33504;52.066;6.096;2022-10-30T06:50:45;101649.78;;;14.66;47.65
47742;BME280;33504;52.066;6.096;2022-10-30T06:53:13;101648.70;;;14.67;47.71
47742;BME280;33504;52.066;6.096;2022-10-30T06:55:40;101646.90;;;14.92;47.84
47742;BME280;33504;52.066;6.096;2022-10-30T06:58:07;101647.24;;;15.14;47.98
47742;BME280;33504;52.066;6.096;2022-10-30T07:00:34;101643.41;;;14.84;48.22
47742;BME280;33504;52.066;6.096;2022-10-30T07:03:01;101645.06;;;14.81;48.41
47742;BME280;33504;52.066;6.096;2022-10-30T07:05:28;101641.08;;;14.79;48.64
47742;BME280;33504;52.066;6.096;2022-10-30T07:07:55;101640.25;;;14.83;48.75
47742;BME280;33504;52.066;6.096;2022-10-30T07:10:23;101640.56;;;15.17;48.68
47742;BME280;33504;52.066;6.096;2022-10-30T07:12:52;101635.31;;;15.20;48.61
47742;BME280;33504;52.066;6.096;2022-10-30T07:15:19;101630.11;;;14.82;48.58
47742;BME280;33504;52.066;6.096;2022-10-30T07:17:51;101632.13;;;15.13;48.48
47742;BME280;33504;52.066;6.096;2022-10-30T07:20:19;101629.78;;;15.21;48.45
47742;BME280;33504;52.066;6.096;2022-10-30T07:22:46;101625.56;;;15.03;48.44
47742;BME280;33504;52.066;6.096;2022-10-30T07:25:14;101627.44;;;15.31;48.56
47742;BME280;33504;52.066;6.096;2022-10-30T07:27:41;101629.77;;;15.19;48.37
47742;BME280;33504;52.066;6.096;2022-10-30T07:30:09;101631.31;;;15.27;48.17
47742;BME280;33504;52.066;6.096;2022-10-30T07:32:36;101627.47;;;15.62;48.02
47742;BME280;33504;52.066;6.096;2022-10-30T07:35:04;101630.51;;;15.54;48.05
47742;BME280;33504;52.066;6.096;2022-10-30T07:37:31;101634.23;;;16.06;47.32
47742;BME280;33504;52.066;6.096;2022-10-30T07:39:58;101630.88;;;16.61;46.68
47742;BME280;33504;52.066;6.096;2022-10-30T07:42:25;101630.03;;;16.94;46.02
47742;BME280;33504;52.066;6.096;2022-10-30T07:44:52;101631.66;;;17.08;46.75
47742;BME280;33504;52.066;6.096;2022-10-30T07:47:19;101632.71;;;17.02;46.14
47742;BME280;33504;52.066;6.096;2022-10-30T07:49:46;101627.29;;;17.45;45.95
47742;BME280;33504;52.066;6.096;2022-10-30T07:52:13;101626.49;;;17.95;45.35
47742;BME280;33504;52.066;6.096;2022-10-30T07:54:40;101627.16;;;18.27;44.92
47742;BME280;33504;52.066;6.096;2022-10-30T07:57:08;101629.42;;;18.34;44.76
47742;BME280;33504;52.066;6.096;2022-10-30T07:59:35;101629.42;;;18.41;44.50
47742;BME280;33504;52.066;6.096;2022-10-30T08:02:02;101632.83;;;18.79;43.74
47742;BME280;33504;52.066;6.096;2022-10-30T08:04:28;101632.86;;;19.26;43.04
47742;BME280;33504;52.066;6.096;2022-10-30T08:06:55;101635.02;;;19.16;42.47
47742;BME280;33504;52.066;6.096;2022-10-30T08:09:22;101638.54;;;19.17;42.85
47742;BME280;33504;52.066;6.096;2022-10-30T08:11:49;101633.81;;;19.39;42.92
47742;BME280;33504;52.066;6.096;2022-10-30T08:14:16;101630.51;;;19.30;43.15
47742;BME280;33504;52.066;6.096;2022-10-30T08:16:43;101630.57;;;18.98;43.18
47742;BME280;33504;52.066;6.096;2022-10-30T08:19:10;101629.42;;;19.64;43.10
47742;BME280;33504;52.066;6.096;2022-10-30T08:21:37;101629.17;;;19.84;42.54
47742;BME280;33504;52.066;6.096;2022-10-30T08:24:04;101632.26;;;20.46;41.78
47742;BME280;33504;52.066;6.096;2022-10-30T08:26:31;101637.03;;;20.77;40.96
47742;BME280;33504;52.066;6.096;2022-10-30T08:28:58;101635.55;;;21.02;40.50
47742;BME280;33504;52.066;6.096;2022-10-30T08:31:25;101628.88;;;21.05;40.28
47742;BME280;33504;52.066;6.096;2022-10-30T08:33:52;101626.71;;;21.43;39.76
47742;BME280;33504;52.066;6.096;2022-10-30T08:36:20;101623.36;;;21.11;39.76
47742;BME280;33504;52.066;6.096;2022-10-30T08:38:47;101625.00;;;21.25;39.92
47742;BME280;33504;52.066;6.096;2022-10-30T08:41:14;101624.46;;;21.47;39.62
47742;BME280;33504;52.066;6.096;2022-10-30T08:43:41;101618.43;;;21.80;39.43
47742;BME280;33504;52.066;6.096;2022-10-30T08:46:07;101620.03;;;21.67;38.80
47742;BME280;33504;52.066;6.096;2022-10-30T08:48:34;101620.10;;;21.64;39.06
47742;BME280;33504;52.066;6.096;2022-10-30T08:51:01;101621.61;;;21.96;39.00
47742;BME280;33504;52.066;6.096;2022-10-30T08:53:28;101620.82;;;22.09;38.71
47742;BME280;33504;52.066;6.096;2022-10-30T08:55:55;101614.04;;;22.38;37.87
47742;BME280;33504;52.066;6.096;2022-10-30T08:58:22;101611.66;;;22.42;38.02
47742;BME280;33504;52.066;6.096;2022-10-30T09:00:49;101610.09;;;22.62;37.41
47742;BME280;33504;52.066;6.096;2022-10-30T09:03:16;101601.40;;;23.06;37.21
47742;BME280;33504;52.066;6.096;2022-10-30T09:05:43;101598.63;;;22.63;37.02
47742;BME280;33504;52.066;6.096;2022-10-30T09:08:09;101596.30;;;22.65;37.23
47742;BME280;33504;52.066;6.096;2022-10-30T09:10:36;101593.69;;;22.89;37.37
47742;BME280;33504;52.066;6.096;2022-10-30T09:13:03;101595.41;;;23.00;36.77
47742;BME280;33504;52.066;6.096;2022-10-30T09:15:30;101600.05;;;23.03;36.59
47742;BME280;33504;52.066;6.096;2022-10-30T09:17:58;101608.46;;;23.02;36.34
47742;BME280;33504;52.066;6.096;2022-10-30T09:20:26;101612.45;;;23.15;36.09
47742;BME280;33504;52.066;6.096;2022-10-30T09:22:53;101616.14;;;23.15;35.82
47742;BME280;33504;52.066;6.096;2022-10-30T09:25:20;101612.84;;;23.49;35.51
47742;BME280;33504;52.066;6.096;2022-10-30T09:27:48;101609.42;;;23.68;35.93
47742;BME280;33504;52.066;6.096;2022-10-30T09:30:15;101610.57;;;23.11;36.18
47742;BME280;33504;52.066;6.096;2022-10-30T09:32:42;101608.26;;;22.88;37.03
47742;BME280;33504;52.066;6.096;2022-10-30T09:35:09;101609.92;;;22.96;36.76
47742;BME280;33504;52.066;6.096;2022-10-30T09:37:36;101611.78;;;23.23;36.60
47742;BME280;33504;52.066;6.096;2022-10-30T09:40:05;101614.53;;;23.67;35.77
47742;BME280;33504;52.066;6.096;2022-10-30T09:42:40;101620.22;;;23.96;35.22
47742;BME280;33504;52.066;6.096;2022-10-30T09:45:21;101623.56;;;24.46;35.42
47742;BME280;33504;52.066;6.096;2022-10-30T09:48:01;101625.63;;;24.82;34.63
47742;BME280;33504;52.066;6.096;2022-10-30T09:50:37;101621.35;;;24.30;34.44
47742;BME280;33504;52.066;6.096;2022-10-30T09:53:14;101621.06;;;24.63;34.60
47742;BME280;33504;52.066;6.096;2022-10-30T09:55:46;101623.80;;;25.09;34.36
47742;BME280;33504;52.066;6.096;2022-10-30T09:58:22;101619.70;;;25.14;33.45
47742;BME280;33504;52.066;6.096;2022-10-30T10:01:03;101616.14;;;25.28;33.04
47742;BME280;33504;52.066;6.096;2022-10-30T10:03:54;101612.78;;;25.61;33.27
47742;BME280;33504;52.066;6.096;2022-10-30T10:06:26;101612.31;;;26.00;32.61
47742;BME280;33504;52.066;6.096;2022-10-30T10:08:57;101603.07;;;26.02;32.00
47742;BME280;33504;52.066;6.096;2022-10-30T10:11:30;101606.84;;;26.16;32.28
47742;BME280;33504;52.066;6.096;2022-10-30T10:14:02;101608.13;;;26.44;31.29
47742;BME280;33504;52.066;6.096;2022-10-30T10:16:33;101613.75;;;26.95;30.89
47742;BME280;33504;52.066;6.096;2022-10-30T10:19:09;101616.18;;;27.09;30.95
47742;BME280;33504;52.066;6.096;2022-10-30T10:21:44;101623.96;;;26.89;31.48
47742;BME280;33504;52.066;6.096;2022-10-30T10:24:15;101627.05;;;27.17;31.22
47742;BME280;33504;52.066;6.096;2022-10-30T10:26:47;101629.47;;;26.59;30.88
47742;BME280;33504;52.066;6.096;2022-10-30T10:29:28;101627.63;;;26.58;31.30
47742;BME280;33504;52.066;6.096;2022-10-30T10:32:11;101627.87;;;26.98;30.88
47742;BME280;33504;52.066;6.096;2022-10-30T10:34:52;101627.59;;;26.62;31.19
47742;BME280;33504;52.066;6.096;2022-10-30T10:37:30;101633.23;;;27.27;30.74
47742;BME280;33504;52.066;6.096;2022-10-30T10:40:19;101633.78;;;28.08;30.84
47742;BME280;33504;52.066;6.096;2022-10-30T10:42:59;101637.23;;;27.57;30.33
47742;BME280;33504;52.066;6.096;2022-10-30T10:45:37;101634.72;;;28.13;29.63
47742;BME280;33504;52.066;6.096;2022-10-30T10:48:21;101635.22;;;28.66;29.16
47742;BME280;33504;52.066;6.096;2022-10-30T10:50:59;101632.44;;;28.66;29.31
47742;BME280;33504;52.066;6.096;2022-10-30T10:53:34;101629.78;;;27.60;29.59
47742;BME280;33504;52.066;6.096;2022-10-30T10:56:08;101625.86;;;27.32;29.75
47742;BME280;33504;52.066;6.096;2022-10-30T10:58:42;101625.92;;;26.43;31.14
47742;BME280;33504;52.066;6.096;2022-10-30T11:01:13;101624.67;;;26.10;31.84
47742;BME280;33504;52.066;6.096;2022-10-30T11:03:49;101620.98;;;25.96;32.02
47742;BME280;33504;52.066;6.096;2022-10-30T11:06:20;101615.45;;;26.49;31.44
47742;BME280;33504;52.066;6.096;2022-10-30T11:08:48;101618.63;;;26.97;30.86
47742;BME280;33504;52.066;6.096;2022-10-30T11:11:16;101617.00;;;26.12;31.37
47742;BME280;33504;52.066;6.096;2022-10-30T11:13:43;101611.15;;;25.74;31.77
47742;BME280;33504;52.066;6.096;2022-10-30T11:16:20;101608.05;;;25.20;33.49
47742;BME280;33504;52.066;6.096;2022-10-30T11:18:54;101608.54;;;25.57;33.10
47742;BME280;33504;52.066;6.096;2022-10-30T11:21:24;101603.39;;;26.08;32.73
47742;BME280;33504;52.066;6.096;2022-10-30T11:23:52;101595.20;;;26.09;32.51
47742;BME280;33504;52.066;6.096;2022-10-30T11:26:30;101595.97;;;26.52;31.82
47742;BME280;33504;52.066;6.096;2022-10-30T11:29:00;101590.19;;;26.85;31.33
47742;BME280;33504;52.066;6.096;2022-10-30T11:31:30;101588.21;;;26.69;31.79
47742;BME280;33504;52.066;6.096;2022-10-30T11:33:58;101589.13;;;26.64;31.74
47742;BME280;33504;52.066;6.096;2022-10-30T11:36:25;101592.27;;;26.05;32.25
47742;BME280;33504;52.066;6.096;2022-10-30T11:38:55;101590.54;;;26.56;31.43
47742;BME280;33504;52.066;6.096;2022-10-30T11:41:34;101592.27;;;26.30;32.21
47742;BME280;33504;52.066;6.096;2022-10-30T11:44:01;101594.56;;;26.51;31.81
47742;BME280;33504;52.066;6.096;2022-10-30T11:46:32;101588.01;;;26.50;31.77
47742;BME280;33504;52.066;6.096;2022-10-30T11:49:01;101588.06;;;25.65;32.59
47742;BME280;33504;52.066;6.096;2022-10-30T11:51:31;101579.42;;;26.09;33.12
47742;BME280;33504;52.066;6.096;2022-10-30T11:54:02;101584.77;;;25.54;33.19
47742;BME280;33504;52.066;6.096;2022-10-30T11:56:32;101576.71;;;25.71;33.22
47742;BME280;33504;52.066;6.096;2022-10-30T11:59:02;101571.66;;;25.75;32.76
47742;BME280;33504;52.066;6.096;2022-10-30T12:01:31;101571.40;;;25.17;33.91
47742;BME280;33504;52.066;6.096;2022-10-30T12:04:13;101575.56;;;25.48;33.65
47742;BME280;33504;52.066;6.096;2022-10-30T12:06:41;101581.19;;;24.92;34.40
47742;BME280;33504;52.066;6.096;2022-10-30T12:09:12;101578.40;;;24.95;34.40
47742;BME280;33504;52.066;6.096;2022-10-30T12:11:40;101578.18;;;24.78;35.10
47742;BME280;33504;52.066;6.096;2022-10-30T12:14:15;101576.52;;;24.61;35.09
47742;BME280;33504;52.066;6.096;2022-10-30T12:16:45;101577.78;;;24.78;35.60
47742;BME280;33504;52.066;6.096;2022-10-30T12:19:14;101575.55;;;24.76;35.40
47742;BME280;33504;52.066;6.096;2022-10-30T12:21:45;101574.37;;;25.02;35.05
47742;BME280;33504;52.066;6.096;2022-10-30T12:24:18;101566.73;;;24.55;35.09
47742;BME280;33504;52.066;6.096;2022-10-30T12:26:48;101563.89;;;24.52;35.73
47742;BME280;33504;52.066;6.096;2022-10-30T12:29:19;101567.53;;;24.05;35.76
47742;BME280;33504;52.066;6.096;2022-10-30T12:31:54;101571.03;;;24.26;36.08
47742;BME280;33504;52.066;6.096;2022-10-30T12:34:32;101566.73;;;24.39;36.35
47742;BME280;33504;52.066;6.096;2022-10-30T12:37:07;101573.49;;;24.48;35.65
47742;BME280;33504;52.066;6.096;2022-10-30T12:39:46;101571.51;;;24.00;35.83
47742;BME280;33504;52.066;6.096;2022-10-30T12:42:16;101566.72;;;23.79;36.18
47742;BME280;33504;52.066;6.096;2022-10-30T12:44:47;101569.36;;;23.51;36.60
47742;BME280;33504;52.066;6.096;2022-10-30T12:47:21;101568.01;;;23.80;36.81
47742;BME280;33504;52.066;6.096;2022-10-30T12:49:55;101570.59;;;24.20;36.51
47742;BME280;33504;52.066;6.096;2022-10-30T12:52:29;101569.00;;;23.68;37.12
47742;BME280;33504;52.066;6.096;2022-10-30T12:55:01;101567.23;;;23.46;37.38
47742;BME280;33504;52.066;6.096;2022-10-30T12:57:32;101561.15;;;23.77;37.11
47742;BME280;33504;52.066;6.096;2022-10-30T13:00:07;101554.61;;;23.67;37.06
47742;BME280;33504;52.066;6.096;2022-10-30T13:02:44;101549.31;;;23.55;37.51